sensor_id;sensor_type;location;lat;lon;timestamp;temperature;humidity
7388;DHT22;3735;50.136;11.062;2022-11-20T00:01:26;-4.80;99.90
7388;DHT22;3735;50.136;11.062;2022-11-20T00:03:54;-4.80;99.90
7388;DHT22;3735;50.136;11.062;2022-11-20T00:06:22;-4.90;99.90
7388;DHT22;3735;50.136;11.062;2022-11-20T00:08:48;-4.90;99.90
7388;DHT22;3735;50.136;11.062;2022-11-20T00:11:17;-4.90;99.90
7388;DHT22;3735;50.136;11.062;2022-11-20T00:13:45;-4.90;99.90
7388;DHT22;3735;50.136;11.062;2022-11-20T00:16:14;-4.90;99.90
7388;DHT22;3735;50.136;11.062;2022-11-20T00:18:41;-4.90;99.90
7388;DHT22;3735;50.136;11.062;2022-11-20T00:21:29;-5.00;99.90
7388;DHT22;3735;50.136;11.062;2022-11-20T00:23:56;-5.10;99.90
7388;DHT22;3735;50.136;11.062;2022-11-20T00:26:24;-5.10;99.90
7388;DHT22;3735;50.136;11.062;2022-11-20T00:28:56;-5.10;99.90
7388;DHT22;3735;50.136;11.062;2022-11-20T00:31:24;-5.10;99.90
7388;DHT22;3735;50.136;11.062;2022-11-20T00:33:50;-5.10;99.90
7388;DHT22;3735;50.136;11.062;2022-11-20T00:36:19;-5.10;99.90
7388;DHT22;3735;50.136;11.062;2022-11-20T00:38:50;-5.10;99.90
7388;DHT22;3735;50.136;11.062;2022-11-20T00:41:16;-5.00;99.90
7388;DHT22;3735;50.136;11.062;2022-11-20T00:43:42;-4.90;99.90
7388;DHT22;3735;50.136;11.062;2022-11-20T00:46:12;-5.00;99.90
7388;DHT22;3735;50.136;11.062;2022-11-20T00:48:39;-5.00;99.90
7388;DHT22;3735;50.136;11.062;2022-11-20T00:51:05;-4.90;99.90
7388;DHT22;3735;50.136;11.062;2022-11-20T00:53:31;-4.90;99.90
7388;DHT22;3735;50.136;11.062;2022-11-20T00:55:59;-4.80;99.90
7388;DHT22;3735;50.136;11.062;2022-11-20T00:58:35;-4.70;99.90
7388;DHT22;3735;50.136;11.062;2022-11-20T01:01:09;-4.70;99.90
7388;DHT22;3735;50.136;11.062;2022-11-20T01:03:46;-4.70;99.90
7388;DHT22;3735;50.136;11.062;2022-11-20T01:06:16;-4.70;99.90
7388;DHT22;3735;50.136;11.062;2022-11-20T01:08:44;-4.80;99.90
7388;DHT22;3735;50.136;11.062;2022-11-20T01:11:15;-4.80;99.90
7388;DHT22;3735;50.136;11.062;2022-11-20T01:13:44;-4.90;99.90
7388;DHT22;3735;50.136;11.062;2022-11-20T01:16:19;-5.00;99.90
7388;DHT22;3735;50.136;11.062;2022-11-20T01:18:48;-5.00;99.90
7388;DHT22;3735;50.136;11.062;2022-11-20T01:21:24;-4.90;99.90
7388;DHT22;3735;50.136;11.062;2022-11-20T01:23:52;-4.90;99.90
7388;DHT22;3735;50.136;11.062;2022-11-20T01:26:24;-5.00;99.90
7388;DHT22;3735;50.136;11.062;2022-11-20T01:28:54;-5.00;99.90
7388;DHT22;3735;50.136;11.062;2022-11-20T01:34:00;-5.00;99.90
7388;DHT22;3735;50.136;11.062;2022-11-20T01:36:29;-4.90;99.90
7388;DHT22;3735;50.136;11.062;2022-11-20T01:38:59;-4.70;99.90
7388;DHT22;3735;50.136;11.062;2022-11-20T01:41:29;-4.50;99.90
7388;DHT22;3735;50.136;11.062;2022-11-20T01:44:17;-4.40;99.90
7388;DHT22;3735;50.136;11.062;2022-11-20T01:47:12;-4.50;99.90
7388;DHT22;3735;50.136;11.062;2022-11-20T01:49:50;-4.50;99.90
7388;DHT22;3735;50.136;11.062;2022-11-20T01:52:29;-4.50;99.90
7388;DHT22;3735;50.136;11.062;2022-11-20T01:55:15;-4.50;99.90
7388;DHT22;3735;50.136;11.062;2022-11-20T01:57:45;-4.50;99.90
7388;DHT22;3735;50.136;11.062;2022-11-20T02:00:16;-4.50;99.90
7388;DHT22;3735;50.136;11.062;2022-11-20T02:02:47;-4.50;99.90
7388;DHT22;3735;50.136;11.062;2022-11-20T02:08:03;-4.50;99.90
7388;DHT22;3735;50.136;11.062;2022-11-20T02:10:31;-4.60;99.90
7388;DHT22;3735;50.136;11.062;2022-11-20T02:12:57;-4.70;99.90
7388;DHT22;3735;50.136;11.062;2022-11-20T02:15:42;-4.80;99.90
7388;DHT22;3735;50.136;11.062;2022-11-20T02:18:09;-4.80;99.90
7388;DHT22;3735;50.136;11.062;2022-11-20T02:20:37;-4.80;99.90
7388;DHT22;3735;50.136;11.062;2022-11-20T02:23:25;-4.70;99.90
7388;DHT22;3735;50.136;11.062;2022-11-20T02:25:58;-4.60;99.90
7388;DHT22;3735;50.136;11.062;2022-11-20T02:28:27;-4.40;99.90
7388;DHT22;3735;50.136;11.062;2022-11-20T02:30:53;-4.30;99.90
7388;DHT22;3735;50.136;11.062;2022-11-20T02:33:19;-4.20;99.90
7388;DHT22;3735;50.136;11.062;2022-11-20T02:35:46;-4.20;99.90
7388;DHT22;3735;50.136;11.062;2022-11-20T02:38:13;-4.00;99.90
7388;DHT22;3735;50.136;11.062;2022-11-20T02:40:40;-3.90;99.90
7388;DHT22;3735;50.136;11.062;2022-11-20T02:43:06;-3.80;99.90
7388;DHT22;3735;50.136;11.062;2022-11-20T02:45:33;-3.80;99.90
7388;DHT22;3735;50.136;11.062;2022-11-20T02:47:59;-3.70;99.90
7388;DHT22;3735;50.136;11.062;2022-11-20T02:50:25;-3.60;99.90
7388;DHT22;3735;50.136;11.062;2022-11-20T02:52:51;-3.50;99.90
7388;DHT22;3735;50.136;11.062;2022-11-20T02:55:16;-3.40;99.90
7388;DHT22;3735;50.136;11.062;2022-11-20T02:57:42;-3.40;99.90
7388;DHT22;3735;50.136;11.062;2022-11-20T03:00:09;-3.40;99.90
7388;DHT22;3735;50.136;11.062;2022-11-20T03:02:35;-3.20;99.90
7388;DHT22;3735;50.136;11.062;2022-11-20T03:05:01;-3.20;99.90
7388;DHT22;3735;50.136;11.062;2022-11-20T03:07:26;-3.10;99.90
7388;DHT22;3735;50.136;11.062;2022-11-20T03:09:52;-3.10;99.90
7388;DHT22;3735;50.136;11.062;2022-11-20T03:12:18;-3.10;99.90
7388;DHT22;3735;50.136;11.062;2022-11-20T03:14:44;-3.10;99.90
7388;DHT22;3735;50.136;11.062;2022-11-20T03:17:09;-3.10;99.90
7388;DHT22;3735;50.136;11.062;2022-11-20T03:19:35;-2.90;99.90
7388;DHT22;3735;50.136;11.062;2022-11-20T03:22:01;-2.90;99.90
7388;DHT22;3735;50.136;11.062;2022-11-20T03:24:27;-2.90;99.90
7388;DHT22;3735;50.136;11.062;2022-11-20T03:26:52;-2.90;99.90
7388;DHT22;3735;50.136;11.062;2022-11-20T03:29:18;-2.80;99.90
7388;DHT22;3735;50.136;11.062;2022-11-20T03:31:44;-2.80;99.90
7388;DHT22;3735;50.136;11.062;2022-11-20T03:34:11;-2.70;99.90
7388;DHT22;3735;50.136;11.062;2022-11-20T03:36:41;-2.70;99.90
7388;DHT22;3735;50.136;11.062;2022-11-20T03:39:08;-2.70;99.90
7388;DHT22;3735;50.136;11.062;2022-11-20T03:41:38;-2.70;99.90
7388;DHT22;3735;50.136;11.062;2022-11-20T03:44:07;-2.80;99.90
7388;DHT22;3735;50.136;11.062;2022-11-20T03:46:35;-2.90;99.90
7388;DHT22;3735;50.136;11.062;2022-11-20T03:49:02;-2.90;99.90
7388;DHT22;3735;50.136;11.062;2022-11-20T03:51:34;-3.00;99.90
7388;DHT22;3735;50.136;11.062;2022-11-20T03:54:04;-2.90;99.90
7388;DHT22;3735;50.136;11.062;2022-11-20T03:56:34;-2.90;99.90
7388;DHT22;3735;50.136;11.062;2022-11-20T03:59:01;-2.90;99.90
7388;DHT22;3735;50.136;11.062;2022-11-20T04:01:33;-2.80;99.90
7388;DHT22;3735;50.136;11.062;2022-11-20T04:04:00;-2.80;99.90
7388;DHT22;3735;50.136;11.062;2022-11-20T04:06:33;-2.80;99.90
7388;DHT22;3735;50.136;11.062;2022-11-20T04:09:01;-2.80;99.90
7388;DHT22;3735;50.136;11.062;2022-11-20T04:11:29;-2.80;99.90
7388;DHT22;3735;50.136;11.062;2022-11-20T04:13:58;-2.80;99.90
7388;DHT22;3735;50.136;11.062;2022-11-20T04:16:30;-2.80;99.90
7388;DHT22;3735;50.136;11.062;2022-11-20T04:19:02;-2.80;99.90
7388;DHT22;3735;50.136;11.062;2022-11-20T04:21:29;-2.70;99.90
7388;DHT22;3735;50.136;11.062;2022-11-20T04:23:56;-2.70;99.90
7388;DHT22;3735;50.136;11.062;2022-11-20T04:26:24;-2.70;99.90
7388;DHT22;3735;50.136;11.062;2022-11-20T04:28:51;-2.70;99.90
7388;DHT22;3735;50.136;11.062;2022-11-20T04:31:19;-2.70;99.90
7388;DHT22;3735;50.136;11.062;2022-11-20T04:33:47;-2.70;99.90
7388;DHT22;3735;50.136;11.062;2022-11-20T04:36:18;-2.70;99.90
7388;DHT22;3735;50.136;11.062;2022-11-20T04:38:54;-2.70;99.90
7388;DHT22;3735;50.136;11.062;2022-11-20T04:41:22;-2.70;99.90
7388;DHT22;3735;50.136;11.062;2022-11-20T04:43:52;-2.70;99.90
7388;DHT22;3735;50.136;11.062;2022-11-20T04:46:24;-2.60;99.90
7388;DHT22;3735;50.136;11.062;2022-11-20T04:48:52;-2.60;99.90
7388;DHT22;3735;50.136;11.062;2022-11-20T04:51:19;-2.60;99.90
7388;DHT22;3735;50.136;11.062;2022-11-20T04:53:44;-2.60;99.90
7388;DHT22;3735;50.136;11.062;2022-11-20T04:56:12;-2.60;99.90
7388;DHT22;3735;50.136;11.062;2022-11-20T04:58:39;-2.50;99.90
7388;DHT22;3735;50.136;11.062;2022-11-20T05:01:12;-2.50;99.90
7388;DHT22;3735;50.136;11.062;2022-11-20T05:03:41;-2.50;99.90
7388;DHT22;3735;50.136;11.062;2022-11-20T05:06:09;-2.40;99.90
7388;DHT22;3735;50.136;11.062;2022-11-20T05:08:37;-2.40;99.90
7388;DHT22;3735;50.136;11.062;2022-11-20T05:11:05;-2.40;99.90
7388;DHT22;3735;50.136;11.062;2022-11-20T05:13:33;-2.30;99.90
7388;DHT22;3735;50.136;11.062;2022-11-20T05:16:17;-2.30;99.90
7388;DHT22;3735;50.136;11.062;2022-11-20T05:18:44;-2.20;99.90
7388;DHT22;3735;50.136;11.062;2022-11-20T05:21:11;-2.20;99.90
7388;DHT22;3735;50.136;11.062;2022-11-20T05:23:37;-2.30;99.90
7388;DHT22;3735;50.136;11.062;2022-11-20T05:26:05;-2.30;99.90
7388;DHT22;3735;50.136;11.062;2022-11-20T05:28:33;-2.20;99.90
7388;DHT22;3735;50.136;11.062;2022-11-20T05:31:06;-2.20;99.90
7388;DHT22;3735;50.136;11.062;2022-11-20T05:33:34;-2.20;99.90
7388;DHT22;3735;50.136;11.062;2022-11-20T05:36:02;-2.20;99.90
7388;DHT22;3735;50.136;11.062;2022-11-20T05:38:29;-2.10;99.90
7388;DHT22;3735;50.136;11.062;2022-11-20T05:41:02;-2.10;99.90
7388;DHT22;3735;50.136;11.062;2022-11-20T05:43:32;-2.10;99.90
7388;DHT22;3735;50.136;11.062;2022-11-20T05:45:59;-2.10;99.90
7388;DHT22;3735;50.136;11.062;2022-11-20T05:48:26;-2.10;99.90
7388;DHT22;3735;50.136;11.062;2022-11-20T05:50:52;-2.10;99.90
7388;DHT22;3735;50.136;11.062;2022-11-20T05:53:17;-2.20;99.90
7388;DHT22;3735;50.136;11.062;2022-11-20T05:55:43;-2.10;99.90
7388;DHT22;3735;50.136;11.062;2022-11-20T05:58:09;-2.10;99.90
7388;DHT22;3735;50.136;11.062;2022-11-20T06:00:35;-2.10;99.90
7388;DHT22;3735;50.136;11.062;2022-11-20T06:03:01;-2.10;99.90
7388;DHT22;3735;50.136;11.062;2022-11-20T06:05:27;-2.10;99.90
7388;DHT22;3735;50.136;11.062;2022-11-20T06:07:53;-2.10;99.90
7388;DHT22;3735;50.136;11.062;2022-11-20T06:10:18;-2.10;99.90
7388;DHT22;3735;50.136;11.062;2022-11-20T06:12:44;-2.10;99.90
7388;DHT22;3735;50.136;11.062;2022-11-20T06:15:10;-2.00;99.90
7388;DHT22;3735;50.136;11.062;2022-11-20T06:17:36;-2.00;99.90
7388;DHT22;3735;50.136;11.062;2022-11-20T06:20:01;-2.00;99.90
7388;DHT22;3735;50.136;11.062;2022-11-20T06:22:27;-2.10;99.90
7388;DHT22;3735;50.136;11.062;2022-11-20T06:24:53;-2.10;99.90
7388;DHT22;3735;50.136;11.062;2022-11-20T06:27:19;-2.10;99.90
7388;DHT22;3735;50.136;11.062;2022-11-20T06:29:44;-2.10;99.90
7388;DHT22;3735;50.136;11.062;2022-11-20T06:32:10;-2.00;99.90
7388;DHT22;3735;50.136;11.062;2022-11-20T06:34:36;-2.00;99.90
7388;DHT22;3735;50.136;11.062;2022-11-20T06:37:02;-2.00;99.90
7388;DHT22;3735;50.136;11.062;2022-11-20T06:39:27;-2.00;99.90
7388;DHT22;3735;50.136;11.062;2022-11-20T06:41:53;-2.00;99.90
7388;DHT22;3735;50.136;11.062;2022-11-20T06:44:19;-1.90;99.90
7388;DHT22;3735;50.136;11.062;2022-11-20T06:46:45;-1.90;99.90
7388;DHT22;3735;50.136;11.062;2022-11-20T06:49:10;-1.90;99.90
7388;DHT22;3735;50.136;11.062;2022-11-20T06:51:36;-1.80;99.90
7388;DHT22;3735;50.136;11.062;2022-11-20T06:54:02;-1.80;99.90
7388;DHT22;3735;50.136;11.062;2022-11-20T06:56:28;-1.80;99.90
7388;DHT22;3735;50.136;11.062;2022-11-20T06:58:54;-1.80;99.90
7388;DHT22;3735;50.136;11.062;2022-11-20T07:01:19;-1.80;99.90
7388;DHT22;3735;50.136;11.062;2022-11-20T07:03:48;-1.80;99.90
7388;DHT22;3735;50.136;11.062;2022-11-20T07:06:15;-1.80;99.90
7388;DHT22;3735;50.136;11.062;2022-11-20T07:08:41;-1.80;99.90
7388;DHT22;3735;50.136;11.062;2022-11-20T07:11:07;-1.70;99.90
7388;DHT22;3735;50.136;11.062;2022-11-20T07:13:34;-1.70;99.90
7388;DHT22;3735;50.136;11.062;2022-11-20T07:16:02;-1.70;99.90
7388;DHT22;3735;50.136;11.062;2022-11-20T07:18:30;-1.60;99.90
7388;DHT22;3735;50.136;11.062;2022-11-20T07:20:59;-1.60;99.90
7388;DHT22;3735;50.136;11.062;2022-11-20T07:23:25;-1.50;99.90
7388;DHT22;3735;50.136;11.062;2022-11-20T07:25:51;-1.40;99.90
7388;DHT22;3735;50.136;11.062;2022-11-20T07:28:17;-1.30;99.90
7388;DHT22;3735;50.136;11.062;2022-11-20T07:30:42;-1.20;99.90
7388;DHT22;3735;50.136;11.062;2022-11-20T07:33:14;-1.20;99.90
7388;DHT22;3735;50.136;11.062;2022-11-20T07:35:40;-1.10;99.90
7388;DHT22;3735;50.136;11.062;2022-11-20T07:38:05;-1.00;99.90
7388;DHT22;3735;50.136;11.062;2022-11-20T07:40:31;-1.00;99.90
7388;DHT22;3735;50.136;11.062;2022-11-20T07:42:57;-1.00;99.90
7388;DHT22;3735;50.136;11.062;2022-11-20T07:45:24;-0.90;99.90
7388;DHT22;3735;50.136;11.062;2022-11-20T07:47:50;-0.90;99.90
7388;DHT22;3735;50.136;11.062;2022-11-20T07:50:16;-0.90;99.90
7388;DHT22;3735;50.136;11.062;2022-11-20T07:52:43;-0.90;99.90
7388;DHT22;3735;50.136;11.062;2022-11-20T07:55:10;-0.90;99.90
7388;DHT22;3735;50.136;11.062;2022-11-20T07:57:36;-0.80;99.90
7388;DHT22;3735;50.136;11.062;2022-11-20T08:00:03;-0.80;99.90
7388;DHT22;3735;50.136;11.062;2022-11-20T08:02:30;-0.70;99.90
7388;DHT22;3735;50.136;11.062;2022-11-20T08:04:56;-0.60;99.90
7388;DHT22;3735;50.136;11.062;2022-11-20T08:07:21;-0.50;99.90
7388;DHT22;3735;50.136;11.062;2022-11-20T08:09:47;-0.30;99.90
7388;DHT22;3735;50.136;11.062;2022-11-20T08:12:18;-0.10;99.90
7388;DHT22;3735;50.136;11.062;2022-11-20T08:15:05;0.00;99.90
7388;DHT22;3735;50.136;11.062;2022-11-20T08:17:32;0.10;99.90
7388;DHT22;3735;50.136;11.062;2022-11-20T08:19:57;0.00;99.90
7388;DHT22;3735;50.136;11.062;2022-11-20T08:22:23;0.00;99.90
7388;DHT22;3735;50.136;11.062;2022-11-20T08:24:50;0.00;99.90
7388;DHT22;3735;50.136;11.062;2022-11-20T08:27:15;0.00;99.90
7388;DHT22;3735;50.136;11.062;2022-11-20T08:29:41;0.00;99.90
7388;DHT22;3735;50.136;11.062;2022-11-20T08:32:07;0.00;99.90
7388;DHT22;3735;50.136;11.062;2022-11-20T08:34:33;0.00;99.90
7388;DHT22;3735;50.136;11.062;2022-11-20T08:36:58;-0.10;99.90
7388;DHT22;3735;50.136;11.062;2022-11-20T08:39:24;-0.10;99.90
7388;DHT22;3735;50.136;11.062;2022-11-20T08:41:50;-0.20;99.90
7388;DHT22;3735;50.136;11.062;2022-11-20T08:44:15;-0.10;99.90
7388;DHT22;3735;50.136;11.062;2022-11-20T08:46:42;-0.10;99.90
7388;DHT22;3735;50.136;11.062;2022-11-20T08:49:10;-0.10;99.90
7388;DHT22;3735;50.136;11.062;2022-11-20T08:51:38;-0.10;99.90
7388;DHT22;3735;50.136;11.062;2022-11-20T08:54:06;0.00;99.90
7388;DHT22;3735;50.136;11.062;2022-11-20T08:56:33;0.00;99.90
7388;DHT22;3735;50.136;11.062;2022-11-20T08:59:00;0.00;99.90
7388;DHT22;3735;50.136;11.062;2022-11-20T09:01:26;0.10;99.90
7388;DHT22;3735;50.136;11.062;2022-11-20T09:03:55;0.20;99.90
7388;DHT22;3735;50.136;11.062;2022-11-20T09:06:22;0.30;99.90
7388;DHT22;3735;50.136;11.062;2022-11-20T09:08:52;0.30;99.90
7388;DHT22;3735;50.136;11.062;2022-11-20T09:11:21;0.30;99.90
7388;DHT22;3735;50.136;11.062;2022-11-20T09:13:46;0.30;99.90
7388;DHT22;3735;50.136;11.062;2022-11-20T09:16:12;0.30;99.90
7388;DHT22;3735;50.136;11.062;2022-11-20T09:18:38;0.30;99.90
7388;DHT22;3735;50.136;11.062;2022-11-20T09:21:10;0.30;99.90
7388;DHT22;3735;50.136;11.062;2022-11-20T09:23:38;0.40;99.90
7388;DHT22;3735;50.136;11.062;2022-11-20T09:26:11;0.40;99.90
7388;DHT22;3735;50.136;11.062;2022-11-20T09:28:39;0.50;99.90
7388;DHT22;3735;50.136;11.062;2022-11-20T09:31:09;0.50;99.90
7388;DHT22;3735;50.136;11.062;2022-11-20T09:33:48;0.50;99.90
7388;DHT22;3735;50.136;11.062;2022-11-20T09:36:14;0.60;99.90
7388;DHT22;3735;50.136;11.062;2022-11-20T09:38:39;0.60;99.90
7388;DHT22;3735;50.136;11.062;2022-11-20T09:41:10;0.70;99.90
7388;DHT22;3735;50.136;11.062;2022-11-20T09:44:09;0.70;99.90
7388;DHT22;3735;50.136;11.062;2022-11-20T09:47:23;0.80;99.90
7388;DHT22;3735;50.136;11.062;2022-11-20T09:50:12;0.90;99.90
7388;DHT22;3735;50.136;11.062;2022-11-20T09:52:56;0.80;99.90
7388;DHT22;3735;50.136;11.062;2022-11-20T09:55:35;0.80;99.90
7388;DHT22;3735;50.136;11.062;2022-11-20T09:58:06;0.80;99.90
7388;DHT22;3735;50.136;11.062;2022-11-20T10:00:35;0.80;99.90
7388;DHT22;3735;50.136;11.062;2022-11-20T10:03:27;0.70;99.90
7388;DHT22;3735;50.136;11.062;2022-11-20T10:06:02;0.70;99.90
7388;DHT22;3735;50.136;11.062;2022-11-20T10:09:06;0.70;99.90
7388;DHT22;3735;50.136;11.062;2022-11-20T10:18:02;0.70;99.90
7388;DHT22;3735;50.136;11.062;2022-11-20T10:21:03;0.90;99.90
7388;DHT22;3735;50.136;11.062;2022-11-20T10:29:09;1.20;99.90
7388;DHT22;3735;50.136;11.062;2022-11-20T10:31:44;1.20;99.90
7388;DHT22;3735;50.136;11.062;2022-11-20T10:34:50;1.30;99.90
7388;DHT22;3735;50.136;11.062;2022-11-20T10:37:25;1.30;99.90
7388;DHT22;3735;50.136;11.062;2022-11-20T10:42:44;1.50;99.90
7388;DHT22;3735;50.136;11.062;2022-11-20T10:48:19;1.40;99.90
7388;DHT22;3735;50.136;11.062;2022-11-20T10:51:09;1.30;99.90
7388;DHT22;3735;50.136;11.062;2022-11-20T10:56:53;1.40;99.90
7388;DHT22;3735;50.136;11.062;2022-11-20T11:00:06;1.50;99.90
7388;DHT22;3735;50.136;11.062;2022-11-20T11:02:47;1.70;99.90
7388;DHT22;3735;50.136;11.062;2022-11-20T11:07:54;1.80;99.90
7388;DHT22;3735;50.136;11.062;2022-11-20T11:10:26;1.70;99.90
7388;DHT22;3735;50.136;11.062;2022-11-20T11:12:58;1.70;99.90
7388;DHT22;3735;50.136;11.062;2022-11-20T11:15:30;1.70;99.90
7388;DHT22;3735;50.136;11.062;2022-11-20T11:18:10;1.70;99.90
7388;DHT22;3735;50.136;11.062;2022-11-20T11:20:37;1.80;99.90
7388;DHT22;3735;50.136;11.062;2022-11-20T11:23:03;1.80;99.90
7388;DHT22;3735;50.136;11.062;2022-11-20T11:25:31;2.00;99.90
7388;DHT22;3735;50.136;11.062;2022-11-20T11:28:20;2.20;99.90
7388;DHT22;3735;50.136;11.062;2022-11-20T11:30:47;2.30;99.90
7388;DHT22;3735;50.136;11.062;2022-11-20T11:36:01;2.40;99.90
7388;DHT22;3735;50.136;11.062;2022-11-20T11:38:40;2.50;99.90
7388;DHT22;3735;50.136;11.062;2022-11-20T11:41:14;2.60;99.90
7388;DHT22;3735;50.136;11.062;2022-11-20T11:43:52;2.70;99.90
7388;DHT22;3735;50.136;11.062;2022-11-20T11:46:43;2.60;99.90
7388;DHT22;3735;50.136;11.062;2022-11-20T11:49:18;2.40;99.90
7388;DHT22;3735;50.136;11.062;2022-11-20T11:51:47;2.30;99.90
7388;DHT22;3735;50.136;11.062;2022-11-20T12:00:19;2.60;99.90
7388;DHT22;3735;50.136;11.062;2022-11-20T12:05:35;2.50;99.90
7388;DHT22;3735;50.136;11.062;2022-11-20T12:11:18;2.40;99.90
7388;DHT22;3735;50.136;11.062;2022-11-20T12:13:58;2.20;99.90
7388;DHT22;3735;50.136;11.062;2022-11-20T12:16:34;2.20;99.90
7388;DHT22;3735;50.136;11.062;2022-11-20T12:19:02;2.30;99.90
7388;DHT22;3735;50.136;11.062;2022-11-20T12:21:48;2.40;99.90
7388;DHT22;3735;50.136;11.062;2022-11-20T12:30:27;2.60;99.90
7388;DHT22;3735;50.136;11.062;2022-11-20T12:48:41;3.50;99.90
7388;DHT22;3735;50.136;11.062;2022-11-20T13:00:14;3.00;99.90
7388;DHT22;3735;50.136;11.062;2022-11-20T13:05:59;3.00;99.90
7388;DHT22;3735;50.136;11.062;2022-11-20T13:08:32;3.30;99.90
7388;DHT22;3735;50.136;11.062;2022-11-20T13:14:24;3.60;99.90
7388;DHT22;3735;50.136;11.062;2022-11-20T13:16:58;3.40;99.90
7388;DHT22;3735;50.136;11.062;2022-11-20T13:19:29;3.30;99.90
7388;DHT22;3735;50.136;11.062;2022-11-20T13:21:55;3.10;99.90
7388;DHT22;3735;50.136;11.062;2022-11-20T13:24:25;2.90;99.90
7388;DHT22;3735;50.136;11.062;2022-11-20T13:27:05;2.80;99.90
7388;DHT22;3735;50.136;11.062;2022-11-20T13:29:46;2.60;99.90
7388;DHT22;3735;50.136;11.062;2022-11-20T13:32:26;2.50;99.90
7388;DHT22;3735;50.136;11.062;2022-11-20T13:35:02;2.40;99.90
7388;DHT22;3735;50.136;11.062;2022-11-20T13:37:35;2.30;99.90
7388;DHT22;3735;50.136;11.062;2022-11-20T13:45:22;2.00;99.90
7388;DHT22;3735;50.136;11.062;2022-11-20T13:47:50;1.90;99.90
7388;DHT22;3735;50.136;11.062;2022-11-20T13:50:17;1.90;99.90
7388;DHT22;3735;50.136;11.062;2022-11-20T13:55:38;1.80;99.90
7388;DHT22;3735;50.136;11.062;2022-11-20T13:58:30;1.90;99.90
7388;DHT22;3735;50.136;11.062;2022-11-20T14:01:23;1.90;99.90
7388;DHT22;3735;50.136;11.062;2022-11-20T14:03:52;1.90;99.90
7388;DHT22;3735;50.136;11.062;2022-11-20T14:06:26;1.90;99.90
7388;DHT22;3735;50.136;11.062;2022-11-20T14:08:54;2.00;99.90
7388;DHT22;3735;50.136;11.062;2022-11-20T14:11:28;2.00;99.90
7388;DHT22;3735;50.136;11.062;2022-11-20T14:14:28;2.00;99.90
7388;DHT22;3735;50.136;11.062;2022-11-20T14:17:06;2.10;99.90
7388;DHT22;3735;50.136;11.062;2022-11-20T14:19:32;2.00;99.90
7388;DHT22;3735;50.136;11.062;2022-11-20T14:24:59;2.00;99.90
7388;DHT22;3735;50.136;11.062;2022-11-20T14:27:27;1.90;99.90
7388;DHT22;3735;50.136;11.062;2022-11-20T14:29:54;1.90;99.90
7388;DHT22;3735;50.136;11.062;2022-11-20T14:32:23;1.90;99.90
7388;DHT22;3735;50.136;11.062;2022-11-20T14:34:53;1.80;99.90
7388;DHT22;3735;50.136;11.062;2022-11-20T14:37:33;1.80;99.90
7388;DHT22;3735;50.136;11.062;2022-11-20T14:40:02;1.80;99.90
7388;DHT22;3735;50.136;11.062;2022-11-20T14:42:30;1.70;99.90
7388;DHT22;3735;50.136;11.062;2022-11-20T14:45:00;1.70;99.90
7388;DHT22;3735;50.136;11.062;2022-11-20T14:47:30;1.70;99.90
7388;DHT22;3735;50.136;11.062;2022-11-20T14:49:57;1.60;99.90
7388;DHT22;3735;50.136;11.062;2022-11-20T14:52:27;1.60;99.90
7388;DHT22;3735;50.136;11.062;2022-11-20T14:54:57;1.60;99.90
7388;DHT22;3735;50.136;11.062;2022-11-20T14:57:34;1.50;99.90
7388;DHT22;3735;50.136;11.062;2022-11-20T15:02:41;1.50;99.90
7388;DHT22;3735;50.136;11.062;2022-11-20T15:05:08;1.50;99.90
7388;DHT22;3735;50.136;11.062;2022-11-20T15:07:42;1.50;99.90
7388;DHT22;3735;50.136;11.062;2022-11-20T15:10:22;1.50;99.90
7388;DHT22;3735;50.136;11.062;2022-11-20T15:12:54;1.50;99.90
7388;DHT22;3735;50.136;11.062;2022-11-20T15:15:32;1.50;99.90
7388;DHT22;3735;50.136;11.062;2022-11-20T15:18:02;1.40;99.90
7388;DHT22;3735;50.136;11.062;2022-11-20T15:20:31;1.40;99.90
7388;DHT22;3735;50.136;11.062;2022-11-20T15:22:58;1.30;99.90
7388;DHT22;3735;50.136;11.062;2022-11-20T15:25:24;1.30;99.90
7388;DHT22;3735;50.136;11.062;2022-11-20T15:27:56;1.30;99.90
7388;DHT22;3735;50.136;11.062;2022-11-20T15:30:23;1.20;99.90
7388;DHT22;3735;50.136;11.062;2022-11-20T15:32:49;1.20;99.90
7388;DHT22;3735;50.136;11.062;2022-11-20T15:35:15;1.20;99.90
7388;DHT22;3735;50.136;11.062;2022-11-20T15:37:42;1.20;99.90
7388;DHT22;3735;50.136;11.062;2022-11-20T15:40:09;1.20;99.90
7388;DHT22;3735;50.136;11.062;2022-11-20T15:42:35;1.30;99.90
7388;DHT22;3735;50.136;11.062;2022-11-20T15:45:01;1.30;99.90
7388;DHT22;3735;50.136;11.062;2022-11-20T15:47:35;1.30;99.90
7388;DHT22;3735;50.136;11.062;2022-11-20T15:50:01;1.40;99.90
7388;DHT22;3735;50.136;11.062;2022-11-20T15:52:27;1.30;99.90
7388;DHT22;3735;50.136;11.062;2022-11-20T15:54:53;1.40;99.90
7388;DHT22;3735;50.136;11.062;2022-11-20T15:57:19;1.40;99.90
7388;DHT22;3735;50.136;11.062;2022-11-20T15:59:44;1.40;99.90
7388;DHT22;3735;50.136;11.062;2022-11-20T16:02:11;1.40;99.90
7388;DHT22;3735;50.136;11.062;2022-11-20T16:04:37;1.40;99.90
7388;DHT22;3735;50.136;11.062;2022-11-20T16:07:04;1.40;99.90
7388;DHT22;3735;50.136;11.062;2022-11-20T16:09:30;1.50;99.90
7388;DHT22;3735;50.136;11.062;2022-11-20T16:11:56;1.50;99.90
7388;DHT22;3735;50.136;11.062;2022-11-20T16:14:25;1.50;99.90
7388;DHT22;3735;50.136;11.062;2022-11-20T16:17:11;1.50;99.90
7388;DHT22;3735;50.136;11.062;2022-11-20T16:19:37;1.50;99.90
7388;DHT22;3735;50.136;11.062;2022-11-20T16:22:03;1.60;99.90
7388;DHT22;3735;50.136;11.062;2022-11-20T16:24:29;1.60;99.90
7388;DHT22;3735;50.136;11.062;2022-11-20T16:26:56;1.60;99.90
7388;DHT22;3735;50.136;11.062;2022-11-20T16:29:22;1.60;99.90
7388;DHT22;3735;50.136;11.062;2022-11-20T16:31:48;1.60;99.90
7388;DHT22;3735;50.136;11.062;2022-11-20T16:34:16;1.60;99.90
7388;DHT22;3735;50.136;11.062;2022-11-20T16:36:43;1.50;99.90
7388;DHT22;3735;50.136;11.062;2022-11-20T16:39:12;1.50;99.90
7388;DHT22;3735;50.136;11.062;2022-11-20T16:41:39;1.50;99.90
7388;DHT22;3735;50.136;11.062;2022-11-20T16:44:09;1.50;99.90
7388;DHT22;3735;50.136;11.062;2022-11-20T16:46:36;1.50;99.90
7388;DHT22;3735;50.136;11.062;2022-11-20T16:49:11;1.50;99.90
7388;DHT22;3735;50.136;11.062;2022-11-20T16:51:38;1.50;99.90
7388;DHT22;3735;50.136;11.062;2022-11-20T16:54:05;1.40;99.90
7388;DHT22;3735;50.136;11.062;2022-11-20T16:56:33;1.40;99.90
7388;DHT22;3735;50.136;11.062;2022-11-20T16:59:00;1.30;99.90
7388;DHT22;3735;50.136;11.062;2022-11-20T17:01:27;1.30;99.90
7388;DHT22;3735;50.136;11.062;2022-11-20T17:04:03;1.30;99.90
7388;DHT22;3735;50.136;11.062;2022-11-20T17:06:32;1.20;99.90
7388;DHT22;3735;50.136;11.062;2022-11-20T17:08:59;1.20;99.90
7388;DHT22;3735;50.136;11.062;2022-11-20T17:11:26;1.20;99.90
7388;DHT22;3735;50.136;11.062;2022-11-20T17:13:57;1.10;99.90
7388;DHT22;3735;50.136;11.062;2022-11-20T17:16:32;1.10;99.90
7388;DHT22;3735;50.136;11.062;2022-11-20T17:18:59;1.10;99.90
7388;DHT22;3735;50.136;11.062;2022-11-20T17:21:25;1.10;99.90
7388;DHT22;3735;50.136;11.062;2022-11-20T17:23:52;1.10;99.90
7388;DHT22;3735;50.136;11.062;2022-11-20T17:26:20;1.10;99.90
7388;DHT22;3735;50.136;11.062;2022-11-20T17:28:58;1.10;99.90
7388;DHT22;3735;50.136;11.062;2022-11-20T17:31:30;1.10;99.90
7388;DHT22;3735;50.136;11.062;2022-11-20T17:33:58;1.10;99.90
7388;DHT22;3735;50.136;11.062;2022-11-20T17:36:28;1.00;99.90
7388;DHT22;3735;50.136;11.062;2022-11-20T17:38:58;1.00;99.90
7388;DHT22;3735;50.136;11.062;2022-11-20T17:41:26;1.00;99.90
7388;DHT22;3735;50.136;11.062;2022-11-20T17:43:55;1.00;99.90
7388;DHT22;3735;50.136;11.062;2022-11-20T17:46:30;1.00;99.90